createdAt,value
2017-03-13T00:00:18.756Z,923.96
2017-03-13T00:01:32.763Z,924.03
2017-03-13T00:02:46.535Z,924.05
2017-03-13T00:04:00.242Z,924.05
2017-03-13T00:05:14.325Z,924.12
2017-03-13T00:06:27.480Z,924.08
2017-03-13T00:07:41.395Z,924.13
2017-03-13T00:08:55.147Z,924.14
2017-03-13T00:10:08.923Z,924.13
2017-03-13T00:11:21.989Z,924.08
2017-03-13T00:12:35.695Z,924.05
2017-03-13T00:13:48.879Z,924.08
2017-03-13T00:15:02.637Z,924.07
2017-03-13T00:16:16.468Z,924.07
2017-03-13T00:17:30.781Z,924.13
2017-03-13T00:18:44.466Z,924.15
2017-03-13T00:19:58.177Z,924.2
2017-03-13T00:21:12.373Z,924.21
2017-03-13T00:22:26.161Z,924.26
2017-03-13T00:23:40.209Z,924.31
2017-03-13T00:24:54.560Z,924.29
2017-03-13T00:26:07.655Z,924.35
2017-03-13T00:27:21.488Z,924.35
2017-03-13T00:28:34.682Z,924.41
2017-03-13T00:29:49.046Z,924.37
2017-03-13T00:31:03.432Z,924.4
2017-03-13T00:32:17.866Z,924.4
2017-03-13T00:33:32.188Z,924.41
2017-03-13T00:34:46.592Z,924.41
2017-03-13T00:36:01.003Z,924.42
2017-03-13T00:37:15.398Z,924.43
2017-03-13T00:38:29.092Z,924.46
2017-03-13T00:39:43.419Z,924.41
2017-03-13T00:40:57.794Z,924.34
2017-03-13T00:42:11.551Z,924.35
2017-03-13T00:43:25.323Z,924.39
2017-03-13T00:44:39.102Z,924.39
2017-03-13T00:45:53.520Z,924.44
2017-03-13T00:47:07.902Z,924.4
2017-03-13T00:48:22.276Z,924.43
2017-03-13T00:49:36.683Z,924.42
2017-03-13T00:50:51.064Z,924.43
2017-03-13T00:52:05.448Z,924.45
2017-03-13T00:53:19.223Z,924.42
2017-03-13T00:54:33.619Z,924.47
2017-03-13T00:55:48.002Z,924.45
2017-03-13T00:57:01.792Z,924.41
2017-03-13T00:58:15.528Z,924.4
2017-03-13T00:59:29.267Z,924.44
2017-03-13T01:00:43.706Z,924.45
2017-03-13T01:01:58.167Z,924.38
2017-03-13T01:03:11.973Z,924.39
2017-03-13T01:04:26.558Z,924.35
2017-03-13T01:05:40.929Z,924.37
2017-03-13T01:06:55.373Z,924.35
2017-03-13T01:08:09.732Z,924.37
2017-03-13T01:09:24.132Z,924.4
2017-03-13T01:10:38.521Z,924.42
2017-03-13T01:11:52.913Z,924.43
2017-03-13T01:13:07.316Z,924.42
2017-03-13T01:14:21.680Z,924.4
2017-03-13T01:15:36.087Z,924.43
2017-03-13T01:16:50.449Z,924.44
2017-03-13T01:18:04.809Z,924.45
2017-03-13T01:19:19.235Z,924.46
2017-03-13T01:20:33.689Z,924.45
2017-03-13T01:21:47.580Z,924.46
2017-03-13T01:23:01.982Z,924.41
2017-03-13T01:24:16.358Z,924.37
2017-03-13T01:25:30.749Z,924.35
2017-03-13T01:26:45.129Z,924.32
2017-03-13T01:27:59.511Z,924.3
2017-03-13T01:29:13.308Z,924.27
2017-03-13T01:30:27.071Z,924.28
2017-03-13T01:31:41.397Z,924.26
2017-03-13T01:32:55.791Z,924.27
2017-03-13T01:34:09.562Z,924.29
2017-03-13T01:35:23.933Z,924.29
2017-03-13T01:36:38.349Z,924.26
2017-03-13T01:37:52.682Z,924.29
2017-03-13T01:39:07.255Z,924.33
2017-03-13T01:40:21.657Z,924.35
2017-03-13T01:41:36.047Z,924.33
2017-03-13T01:42:50.435Z,924.33
2017-03-13T01:44:04.201Z,924.33
2017-03-13T01:45:18.054Z,924.34
2017-03-13T01:46:31.771Z,924.33
2017-03-13T01:47:45.550Z,924.29
2017-03-13T01:48:59.329Z,924.3
2017-03-13T01:50:13.750Z,924.3
2017-03-13T01:51:28.129Z,924.35
2017-03-13T01:52:41.855Z,924.43
2017-03-13T01:53:56.208Z,924.51
2017-03-13T01:55:10.630Z,924.55
2017-03-13T01:56:25.031Z,924.6
2017-03-13T01:57:39.448Z,924.65
2017-03-13T01:58:53.924Z,924.8
2017-03-13T02:00:08.294Z,924.79
2017-03-13T02:01:22.706Z,924.81
2017-03-13T02:02:37.078Z,924.89
2017-03-13T02:03:50.831Z,924.86
2017-03-13T02:05:05.238Z,924.97
2017-03-13T02:06:19.022Z,924.92
2017-03-13T02:07:33.456Z,924.98
2017-03-13T02:08:47.618Z,924.92
2017-03-13T02:10:02.095Z,925.01
2017-03-13T02:11:15.828Z,925.01
2017-03-13T02:12:30.242Z,925.09
2017-03-13T02:13:44.654Z,925.09
2017-03-13T02:14:59.062Z,925.07
2017-03-13T02:16:13.488Z,925.2
2017-03-13T02:17:27.419Z,925.17
2017-03-13T02:18:41.238Z,925.17
2017-03-13T02:19:55.614Z,925.11
2017-03-13T02:21:10.023Z,925.16
2017-03-13T02:22:23.796Z,924.99
2017-03-13T02:23:37.568Z,925.18
2017-03-13T02:24:52.016Z,925.26
2017-03-13T02:26:06.429Z,925.36
2017-03-13T02:27:20.838Z,925.35
2017-03-13T02:28:35.212Z,925.32
2017-03-13T02:29:49.580Z,925.29
2017-03-13T02:31:03.345Z,925.31
2017-03-13T02:32:17.743Z,925.2
2017-03-13T02:33:32.174Z,925.23
2017-03-13T02:34:46.834Z,925.23
2017-03-13T02:36:00.530Z,925.22
2017-03-13T02:37:14.331Z,925.34
2017-03-13T02:38:28.701Z,925.32
2017-03-13T02:39:43.118Z,925.42
2017-03-13T02:40:57.483Z,925.46
2017-03-13T02:42:11.849Z,925.45
2017-03-13T02:43:25.642Z,925.46
2017-03-13T02:44:40.033Z,925.41
2017-03-13T02:45:54.398Z,925.32
2017-03-13T02:47:08.784Z,925.25
2017-03-13T02:48:22.552Z,925.22
2017-03-13T02:49:36.964Z,925.26
2017-03-13T02:50:51.395Z,925.1
2017-03-13T02:52:05.793Z,925.29
2017-03-13T02:53:20.246Z,925.23
2017-03-13T02:54:34.637Z,925.26
2017-03-13T02:55:49.038Z,925.24
2017-03-13T02:57:03.414Z,925.34
2017-03-13T02:58:17.820Z,925.35
2017-03-13T02:59:32.259Z,925.36
2017-03-13T03:00:46.622Z,925.33
2017-03-13T03:02:01.075Z,925.38
2017-03-13T03:03:15.501Z,925.41
2017-03-13T03:04:29.246Z,925.44
2017-03-13T03:05:42.973Z,925.41
2017-03-13T03:06:57.352Z,925.47
2017-03-13T03:08:11.817Z,925.47
2017-03-13T03:09:26.197Z,925.42
2017-03-13T03:10:39.981Z,925.36
2017-03-13T03:11:54.390Z,925.36
2017-03-13T03:13:08.797Z,925.38
2017-03-13T03:14:22.545Z,925.3
2017-03-13T03:15:36.362Z,925.33
2017-03-13T03:16:50.114Z,925.35
2017-03-13T03:18:03.884Z,925.32
2017-03-13T03:19:18.294Z,925.29
2017-03-13T03:20:33.161Z,925.35
2017-03-13T03:21:47.558Z,925.3
2017-03-13T03:23:01.953Z,925.34
2017-03-13T03:24:16.342Z,925.33
2017-03-13T03:25:30.773Z,925.34
2017-03-13T03:26:45.189Z,925.35
2017-03-13T03:27:59.601Z,925.33
2017-03-13T03:29:14.037Z,925.29
2017-03-13T03:30:28.491Z,925.27
2017-03-13T03:31:42.903Z,925.29
2017-03-13T03:32:57.322Z,925.25
2017-03-13T03:34:11.733Z,925.19
2017-03-13T03:35:26.139Z,925.14
2017-03-13T03:36:40.632Z,925.16
2017-03-13T03:37:55.061Z,925.09
2017-03-13T03:39:09.469Z,925.04
2017-03-13T03:40:23.846Z,924.98
2017-03-13T03:41:37.564Z,924.96
2017-03-13T03:42:51.371Z,924.94
2017-03-13T03:44:05.780Z,924.93
2017-03-13T03:45:20.191Z,924.82
2017-03-13T03:46:34.662Z,924.82
2017-03-13T03:47:48.680Z,924.81
2017-03-13T03:49:03.059Z,924.78
2017-03-13T03:50:16.822Z,924.78
2017-03-13T03:51:31.229Z,924.8
2017-03-13T03:52:44.981Z,924.82
2017-03-13T03:53:59.395Z,924.8
2017-03-13T03:55:13.866Z,924.74
2017-03-13T03:56:27.625Z,924.75
2017-03-13T03:57:42.030Z,924.71
2017-03-13T03:58:56.439Z,924.69
2017-03-13T04:00:10.863Z,924.65
2017-03-13T04:01:25.320Z,924.6
2017-03-13T04:02:39.048Z,924.6
2017-03-13T04:03:52.811Z,924.56
2017-03-13T04:05:07.194Z,924.57
2017-03-13T04:06:21.607Z,924.57
2017-03-13T04:07:36.032Z,924.61
2017-03-13T04:08:50.411Z,924.59
2017-03-13T04:10:04.816Z,924.55
2017-03-13T04:11:19.243Z,924.51
2017-03-13T04:12:32.356Z,924.48
2017-03-13T04:13:46.765Z,924.46
2017-03-13T04:15:01.136Z,924.43
2017-03-13T04:16:15.601Z,924.38
2017-03-13T04:17:30.063Z,924.34
2017-03-13T04:18:44.436Z,924.3
2017-03-13T04:19:58.852Z,924.25
2017-03-13T04:21:12.584Z,924.23
2017-03-13T04:22:27.044Z,924.23
2017-03-13T04:23:41.422Z,924.21
2017-03-13T04:24:55.804Z,924.17
2017-03-13T04:26:10.179Z,924.19
2017-03-13T04:27:24.584Z,924.18
2017-03-13T04:28:39.016Z,924.15
2017-03-13T04:29:52.764Z,924.2
2017-03-13T04:31:06.503Z,924.21
2017-03-13T04:32:20.885Z,924.23
2017-03-13T04:33:35.298Z,924.23
2017-03-13T04:34:49.690Z,924.2
2017-03-13T04:36:04.094Z,924.18
2017-03-13T04:37:18.475Z,924.14
2017-03-13T04:38:32.857Z,924.12
2017-03-13T04:39:47.313Z,924.12
2017-03-13T04:41:02.224Z,924.11
2017-03-13T04:42:16.662Z,924.12
2017-03-13T04:43:29.801Z,924.13
2017-03-13T04:44:44.191Z,924.08
2017-03-13T04:45:58.567Z,924.07
2017-03-13T04:47:12.325Z,924.11
2017-03-13T04:48:26.744Z,924.1
2017-03-13T04:49:41.250Z,924.09
2017-03-13T04:50:55.014Z,924.07
2017-03-13T04:52:08.822Z,924.09
2017-03-13T04:53:23.218Z,924.03
2017-03-13T04:54:36.971Z,923.97
2017-03-13T04:55:51.380Z,923.92
2017-03-13T04:57:05.775Z,923.88
2017-03-13T04:58:19.545Z,923.85
2017-03-13T04:59:33.936Z,923.79
2017-03-13T05:00:48.290Z,923.72
2017-03-13T05:02:02.632Z,923.69
2017-03-13T05:03:16.355Z,923.68
2017-03-13T05:04:30.755Z,923.66
2017-03-13T05:05:45.116Z,923.62
2017-03-13T05:06:59.544Z,923.54
2017-03-13T05:08:13.965Z,923.5
2017-03-13T05:09:27.726Z,923.42
2017-03-13T05:10:41.464Z,923.36
2017-03-13T05:11:55.924Z,923.3
2017-03-13T05:13:10.367Z,923.28
2017-03-13T05:14:24.780Z,923.21
2017-03-13T05:15:39.071Z,923.17
2017-03-13T05:16:52.801Z,923.11
2017-03-13T05:18:07.207Z,923.07
2017-03-13T05:19:21.632Z,923.02
2017-03-13T05:20:36.008Z,923.01
2017-03-13T05:21:50.420Z,923.02
2017-03-13T05:23:04.794Z,922.97
2017-03-13T05:24:19.192Z,922.93
2017-03-13T05:25:33.560Z,922.91
2017-03-13T05:26:48.060Z,922.93
2017-03-13T05:28:01.807Z,922.91
2017-03-13T05:29:16.161Z,922.88
2017-03-13T05:30:30.493Z,922.9
2017-03-13T05:31:44.729Z,922.87
2017-03-13T05:32:59.117Z,922.86
2017-03-13T05:34:13.469Z,922.8
2017-03-13T05:35:27.224Z,922.86
2017-03-13T05:36:40.321Z,922.85
2017-03-13T05:37:53.102Z,922.87
2017-03-13T05:39:07.151Z,922.88
2017-03-13T05:40:20.644Z,922.9
2017-03-13T05:41:34.870Z,922.91
2017-03-13T05:42:48.577Z,922.91
2017-03-13T05:44:02.303Z,922.9
2017-03-13T05:45:16.555Z,922.88
2017-03-13T05:46:30.331Z,922.88
2017-03-13T05:47:44.141Z,922.85
2017-03-13T05:48:57.812Z,922.82
2017-03-13T05:50:10.941Z,922.83
2017-03-13T05:51:25.131Z,922.75
2017-03-13T05:52:38.787Z,922.8
2017-03-13T05:53:52.473Z,922.79
2017-03-13T05:55:06.214Z,922.77
2017-03-13T05:56:19.966Z,922.72
2017-03-13T05:57:33.797Z,922.68
2017-03-13T05:58:47.503Z,922.67
2017-03-13T06:00:01.204Z,922.59
2017-03-13T06:01:14.973Z,922.58
2017-03-13T06:02:28.099Z,922.62
2017-03-13T06:03:41.814Z,922.58
2017-03-13T06:04:55.519Z,922.55
2017-03-13T06:06:08.618Z,922.6
2017-03-13T06:07:21.903Z,922.62
2017-03-13T06:08:35.006Z,922.65
2017-03-13T06:09:48.717Z,922.64
2017-03-13T06:11:02.467Z,922.69
2017-03-13T06:12:15.576Z,922.7
2017-03-13T06:13:29.258Z,922.73
2017-03-13T06:14:42.362Z,922.75
2017-03-13T06:15:56.063Z,922.75
2017-03-13T06:17:09.746Z,922.75
2017-03-13T06:18:23.464Z,922.73
2017-03-13T06:19:36.600Z,922.68
2017-03-13T06:20:50.314Z,922.63
2017-03-13T06:22:04.011Z,922.58
2017-03-13T06:23:17.693Z,922.54
2017-03-13T06:24:31.408Z,922.52
2017-03-13T06:25:45.139Z,922.47
2017-03-13T06:26:58.834Z,922.49
2017-03-13T06:28:11.949Z,922.47
2017-03-13T06:29:25.705Z,922.45
2017-03-13T06:30:39.398Z,922.49
2017-03-13T06:31:52.514Z,922.51
2017-03-13T06:33:05.650Z,922.52
2017-03-13T06:34:19.436Z,922.52
2017-03-13T06:35:33.146Z,922.51
2017-03-13T06:36:46.826Z,922.49
2017-03-13T06:38:00.540Z,922.47
2017-03-13T06:39:14.249Z,922.46
2017-03-13T06:40:27.386Z,922.46
2017-03-13T06:41:41.086Z,922.48
2017-03-13T06:42:54.824Z,922.49
2017-03-13T06:44:08.501Z,922.45
2017-03-13T06:45:22.196Z,922.44
2017-03-13T06:46:35.908Z,922.4
2017-03-13T06:47:49.615Z,922.36
2017-03-13T06:49:02.737Z,922.36
2017-03-13T06:50:16.441Z,922.36
2017-03-13T06:51:30.214Z,922.3
2017-03-13T06:52:43.925Z,922.33
2017-03-13T06:53:57.624Z,922.31
2017-03-13T06:55:11.308Z,922.3
2017-03-13T06:56:24.992Z,922.31
2017-03-13T06:57:38.065Z,922.32
2017-03-13T06:58:51.175Z,922.33
2017-03-13T07:00:04.946Z,922.29
2017-03-13T07:01:18.076Z,922.36
2017-03-13T07:02:31.233Z,922.39
2017-03-13T07:03:44.928Z,922.42
2017-03-13T07:04:58.634Z,922.46
2017-03-13T07:06:12.309Z,922.53
2017-03-13T07:07:25.419Z,922.51
2017-03-13T07:08:39.105Z,922.58
2017-03-13T07:09:52.793Z,922.59
2017-03-13T07:11:06.498Z,922.6
2017-03-13T07:12:20.209Z,922.65
2017-03-13T07:13:33.299Z,922.69
2017-03-13T07:14:46.983Z,922.72
2017-03-13T07:16:00.692Z,922.67
2017-03-13T07:17:14.404Z,922.69
2017-03-13T07:18:28.117Z,922.71
2017-03-13T07:19:41.841Z,922.73
2017-03-13T07:20:55.566Z,922.74
2017-03-13T07:22:09.257Z,922.78
2017-03-13T07:23:22.964Z,922.83
2017-03-13T07:24:36.662Z,922.81
2017-03-13T07:25:49.801Z,922.83
2017-03-13T07:27:03.483Z,922.85
2017-03-13T07:28:15.973Z,922.86
2017-03-13T07:29:28.480Z,922.86
2017-03-13T07:30:42.183Z,922.91
2017-03-13T07:31:55.323Z,922.86
2017-03-13T07:33:09.034Z,922.87
2017-03-13T07:34:22.731Z,922.88
2017-03-13T07:35:36.435Z,922.91
2017-03-13T07:36:50.111Z,922.94
2017-03-13T07:38:03.861Z,922.93
2017-03-13T07:39:17.599Z,922.91
2017-03-13T07:40:31.311Z,922.93
2017-03-13T07:41:44.992Z,922.9
2017-03-13T07:42:58.687Z,922.92
2017-03-13T07:44:12.423Z,922.93
2017-03-13T07:45:25.541Z,922.91
2017-03-13T07:46:39.248Z,922.89
2017-03-13T07:47:52.321Z,922.94
2017-03-13T07:49:06.020Z,922.99
2017-03-13T07:50:19.749Z,923.04
2017-03-13T07:51:32.834Z,923.05
2017-03-13T07:52:46.551Z,923.05
2017-03-13T07:54:00.245Z,923.09
2017-03-13T07:55:13.970Z,923.12
2017-03-13T07:56:27.066Z,923.14
2017-03-13T07:57:40.787Z,923.14
2017-03-13T07:58:53.902Z,923.16
2017-03-13T08:00:07.022Z,923.13
2017-03-13T08:01:20.733Z,923.15
2017-03-13T08:02:34.445Z,923.18
2017-03-13T08:03:48.157Z,923.2
2017-03-13T08:05:01.829Z,923.2
2017-03-13T08:06:15.504Z,923.21
2017-03-13T08:07:28.631Z,923.18
2017-03-13T08:08:41.731Z,923.19
2017-03-13T08:09:55.439Z,923.18
2017-03-13T08:11:09.156Z,923.15
2017-03-13T08:12:22.287Z,923.17
2017-03-13T08:13:35.387Z,923.16
2017-03-13T08:14:49.095Z,923.09
2017-03-13T08:16:02.798Z,923.15
2017-03-13T08:17:15.895Z,923.11
2017-03-13T08:18:29.593Z,923.12
2017-03-13T08:19:43.297Z,923.08
2017-03-13T08:20:56.984Z,923.08
2017-03-13T08:22:10.713Z,923.13
2017-03-13T08:23:24.432Z,923.13
2017-03-13T08:24:38.179Z,923.14
2017-03-13T08:25:51.282Z,923.13
2017-03-13T08:27:04.410Z,923.19
2017-03-13T08:28:18.134Z,923.27
2017-03-13T08:29:31.881Z,923.32
2017-03-13T08:30:45.564Z,923.37
2017-03-13T08:31:59.244Z,923.38
2017-03-13T08:33:12.950Z,923.37
2017-03-13T08:34:25.479Z,923.35
2017-03-13T08:35:38.622Z,923.41
2017-03-13T08:36:52.357Z,923.45
2017-03-13T08:38:05.464Z,923.44
2017-03-13T08:39:19.164Z,923.52
2017-03-13T08:40:32.278Z,923.56
2017-03-13T08:41:45.992Z,923.61
2017-03-13T08:42:59.136Z,923.63
2017-03-13T08:44:12.248Z,923.66
2017-03-13T08:45:25.956Z,923.68
2017-03-13T08:46:39.137Z,923.72
2017-03-13T08:47:51.658Z,923.75
2017-03-13T08:49:05.372Z,923.8
2017-03-13T08:50:19.089Z,923.78
2017-03-13T08:51:32.776Z,923.77
2017-03-13T08:52:46.460Z,923.8
2017-03-13T08:54:00.221Z,923.81
2017-03-13T08:55:13.909Z,923.79
2017-03-13T08:56:27.599Z,923.82
2017-03-13T08:57:41.310Z,923.83
2017-03-13T08:58:55.017Z,923.83
2017-03-13T09:00:08.769Z,923.85
2017-03-13T09:01:22.489Z,923.92
2017-03-13T09:02:35.630Z,923.88
2017-03-13T09:03:49.354Z,923.81
2017-03-13T09:05:02.479Z,923.88
2017-03-13T09:06:16.180Z,923.91
2017-03-13T09:07:29.261Z,923.94
2017-03-13T09:08:42.980Z,923.89
2017-03-13T09:09:56.056Z,923.92
2017-03-13T09:11:09.736Z,923.94
2017-03-13T09:12:23.440Z,923.93
2017-03-13T09:13:37.152Z,923.93
2017-03-13T09:14:50.861Z,923.96
2017-03-13T09:16:04.547Z,924.04
2017-03-13T09:17:18.267Z,924.09
2017-03-13T09:18:31.965Z,924.09
2017-03-13T09:19:45.082Z,924.16
2017-03-13T09:20:58.800Z,924.18
2017-03-13T09:22:12.500Z,924.18
2017-03-13T09:23:25.617Z,924.21
2017-03-13T09:24:39.341Z,924.27
2017-03-13T09:25:52.443Z,924.29
2017-03-13T09:27:06.178Z,924.3
2017-03-13T09:28:19.891Z,924.3
2017-03-13T09:29:33.626Z,924.37
2017-03-13T09:30:46.141Z,924.36
2017-03-13T09:31:58.043Z,924.41
2017-03-13T09:33:11.747Z,924.47
2017-03-13T09:34:24.883Z,924.45
2017-03-13T09:35:38.629Z,924.48
2017-03-13T09:36:52.325Z,924.48
2017-03-13T09:38:06.017Z,924.49
2017-03-13T09:39:19.742Z,924.53
2017-03-13T09:40:32.871Z,924.54
2017-03-13T09:41:46.547Z,924.57
2017-03-13T09:43:00.235Z,924.57
2017-03-13T09:44:13.983Z,924.61
2017-03-13T09:45:27.672Z,924.59
2017-03-13T09:46:41.367Z,924.57
2017-03-13T09:47:55.066Z,924.64
2017-03-13T09:49:08.174Z,924.69
2017-03-13T09:50:21.899Z,924.66
2017-03-13T09:51:35.007Z,924.72
2017-03-13T09:52:48.739Z,924.76
2017-03-13T09:54:01.847Z,924.7
2017-03-13T09:55:15.532Z,924.78
2017-03-13T09:56:29.270Z,924.82
2017-03-13T09:57:41.800Z,924.78
2017-03-13T09:58:55.485Z,924.82
2017-03-13T10:00:07.984Z,924.82
2017-03-13T10:01:21.117Z,924.8
2017-03-13T10:02:34.825Z,924.82
2017-03-13T10:03:48.545Z,924.86
2017-03-13T10:05:02.206Z,924.88
2017-03-13T10:06:15.948Z,924.9
2017-03-13T10:07:29.688Z,924.95
2017-03-13T10:08:43.392Z,924.94
2017-03-13T10:09:56.491Z,925.01
2017-03-13T10:11:10.208Z,925.01
2017-03-13T10:12:23.331Z,925.03
2017-03-13T10:13:36.442Z,925.07
2017-03-13T10:14:50.198Z,925.08
2017-03-13T10:16:03.868Z,925.11
2017-03-13T10:17:16.979Z,925.14
2017-03-13T10:18:30.107Z,925.12
2017-03-13T10:19:43.830Z,925.15
2017-03-13T10:20:57.517Z,925.16
2017-03-13T10:22:11.252Z,925.15
2017-03-13T10:23:24.354Z,925.22
2017-03-13T10:24:38.053Z,925.3
2017-03-13T10:25:50.559Z,925.35
2017-03-13T10:27:04.294Z,925.34
2017-03-13T10:28:17.395Z,925.31
2017-03-13T10:29:31.103Z,925.38
2017-03-13T10:30:44.220Z,925.38
2017-03-13T10:31:57.322Z,925.39
2017-03-13T10:33:11.040Z,925.38
2017-03-13T10:34:24.752Z,925.37
2017-03-13T10:35:37.849Z,925.42
2017-03-13T10:36:51.556Z,925.43
2017-03-13T10:38:04.671Z,925.51
2017-03-13T10:39:18.354Z,925.45
2017-03-13T10:40:32.053Z,925.36
2017-03-13T10:41:45.175Z,925.51
2017-03-13T10:42:58.884Z,925.59
2017-03-13T10:44:12.040Z,925.53
2017-03-13T10:45:25.757Z,925.53
2017-03-13T10:46:38.866Z,925.51
2017-03-13T10:47:52.613Z,925.44
2017-03-13T10:49:06.348Z,925.56
2017-03-13T10:50:20.069Z,925.58
2017-03-13T10:51:32.627Z,925.63
2017-03-13T10:52:45.895Z,925.72
2017-03-13T10:53:59.595Z,925.71
2017-03-13T10:55:13.324Z,925.7
2017-03-13T10:56:26.471Z,925.71
2017-03-13T10:57:40.179Z,925.7
2017-03-13T10:58:53.310Z,925.72
2017-03-13T11:00:07.013Z,925.71
2017-03-13T11:01:20.122Z,925.75
2017-03-13T11:02:33.984Z,925.72
2017-03-13T11:03:47.701Z,925.75
2017-03-13T11:05:01.413Z,925.76
2017-03-13T11:06:15.131Z,925.73
2017-03-13T11:07:28.817Z,925.81
2017-03-13T11:08:42.602Z,925.8
2017-03-13T11:09:56.378Z,925.74
2017-03-13T11:11:10.186Z,925.81
2017-03-13T11:12:23.947Z,925.82
2017-03-13T11:13:37.069Z,925.86
2017-03-13T11:14:50.151Z,925.8
2017-03-13T11:16:03.248Z,925.85
2017-03-13T11:17:16.974Z,925.84
2017-03-13T11:18:30.688Z,925.89
2017-03-13T11:19:44.392Z,925.9
2017-03-13T11:20:57.528Z,925.93
2017-03-13T11:22:11.614Z,925.95
2017-03-13T11:23:25.325Z,925.96
2017-03-13T11:24:38.451Z,925.96
2017-03-13T11:25:52.171Z,926
2017-03-13T11:27:05.304Z,926.03
2017-03-13T11:28:19.020Z,926
2017-03-13T11:29:32.711Z,926.04
2017-03-13T11:30:46.430Z,926.07
2017-03-13T11:31:59.609Z,926.06
2017-03-13T11:33:13.314Z,926.07
2017-03-13T11:34:26.423Z,926.11
2017-03-13T11:35:40.130Z,926.12
2017-03-13T11:36:53.250Z,926.13
2017-03-13T11:38:06.944Z,926.17
2017-03-13T11:39:20.046Z,926.16
2017-03-13T11:40:33.781Z,926.12
2017-03-13T11:41:47.504Z,926.12
2017-03-13T11:43:01.210Z,926.12
2017-03-13T11:44:14.914Z,926.14
2017-03-13T11:45:28.633Z,926.13
2017-03-13T11:46:41.802Z,926.17
2017-03-13T11:47:54.924Z,926.13
2017-03-13T11:49:08.663Z,926.14
2017-03-13T11:50:21.812Z,926.16
2017-03-13T11:51:35.506Z,926.14
2017-03-13T11:52:49.282Z,926.18
2017-03-13T11:54:03.044Z,926.14
2017-03-13T11:55:16.752Z,926.19
2017-03-13T11:56:30.472Z,926.03
2017-03-13T11:57:44.161Z,926.07
2017-03-13T11:58:57.835Z,926.12
2017-03-13T12:00:11.534Z,926.12
2017-03-13T12:01:24.654Z,926.11
2017-03-13T12:02:38.414Z,926.11
2017-03-13T12:03:52.138Z,926.23
2017-03-13T12:05:05.834Z,926.15
2017-03-13T12:06:19.540Z,926.21
2017-03-13T12:07:33.301Z,926.22
2017-03-13T12:08:46.411Z,926.21
2017-03-13T12:10:00.150Z,926.21
2017-03-13T12:11:12.646Z,926.26
2017-03-13T12:12:26.393Z,926.23
2017-03-13T12:13:39.524Z,926.22
2017-03-13T12:14:53.270Z,926.24
2017-03-13T12:16:06.395Z,926.26
2017-03-13T12:17:19.531Z,926.23
2017-03-13T12:18:32.641Z,926.36
2017-03-13T12:19:46.386Z,926.36
2017-03-13T12:20:59.578Z,926.38
2017-03-13T12:22:13.329Z,926.41
2017-03-13T12:23:26.453Z,926.39
2017-03-13T12:24:39.595Z,926.39
2017-03-13T12:25:52.731Z,926.37
2017-03-13T12:27:05.866Z,926.39
2017-03-13T12:28:19.625Z,926.41
2017-03-13T12:29:33.340Z,926.44
2017-03-13T12:30:47.056Z,926.44
2017-03-13T12:32:00.767Z,926.5
2017-03-13T12:33:13.869Z,926.51
2017-03-13T12:34:26.970Z,926.55
2017-03-13T12:35:40.085Z,926.54
2017-03-13T12:36:53.868Z,926.51
2017-03-13T12:38:07.609Z,926.55
2017-03-13T12:39:20.136Z,926.48
2017-03-13T12:40:33.252Z,926.46
2017-03-13T12:41:45.164Z,926.54
2017-03-13T12:42:58.261Z,926.56
2017-03-13T12:44:10.804Z,926.49
2017-03-13T12:45:24.514Z,926.54
2017-03-13T12:46:37.629Z,926.52
2017-03-13T12:47:50.758Z,926.49
2017-03-13T12:49:04.473Z,926.46
2017-03-13T12:50:18.193Z,926.43
2017-03-13T12:51:31.950Z,926.4
2017-03-13T12:55:11.760Z,926.54
2017-03-13T12:56:24.913Z,926.56
2017-03-13T12:57:38.644Z,926.59
2017-03-13T12:58:52.354Z,926.58
2017-03-13T13:00:06.097Z,926.56
2017-03-13T13:01:19.786Z,926.58
2017-03-13T13:02:32.859Z,926.54
2017-03-13T13:03:46.537Z,926.59
2017-03-13T13:04:59.595Z,926.58
2017-03-13T13:06:13.265Z,926.52
2017-03-13T13:07:25.825Z,926.49
2017-03-13T13:08:40.107Z,926.49
2017-03-13T13:09:53.185Z,926.5
2017-03-13T13:11:06.300Z,926.49
2017-03-13T13:12:19.960Z,926.46
2017-03-13T13:13:33.630Z,926.45
2017-03-13T13:14:47.331Z,926.49
2017-03-13T13:16:01.009Z,926.47
2017-03-13T13:17:14.781Z,926.43
2017-03-13T13:18:28.444Z,926.46
2017-03-13T13:19:41.552Z,926.36
2017-03-13T13:20:55.226Z,926.41
2017-03-13T13:22:08.891Z,926.44
2017-03-13T13:23:21.966Z,926.37
2017-03-13T13:24:35.639Z,926.41
2017-03-13T13:25:49.323Z,926.38
2017-03-13T13:27:02.397Z,926.42
2017-03-13T13:28:16.102Z,926.3
2017-03-13T13:29:29.791Z,926.27
2017-03-13T13:30:42.873Z,926.32
2017-03-13T13:31:56.572Z,926.31
2017-03-13T13:33:09.683Z,926.36
2017-03-13T13:34:23.399Z,926.36
2017-03-13T13:35:36.513Z,926.32
2017-03-13T13:36:50.247Z,926.32
2017-03-13T13:38:03.341Z,926.33
2017-03-13T13:39:17.016Z,926.31
2017-03-13T13:40:30.697Z,926.31
2017-03-13T13:41:44.481Z,926.28
2017-03-13T13:42:58.192Z,926.31
2017-03-13T13:44:11.900Z,926.33
2017-03-13T13:45:24.984Z,926.35
2017-03-13T13:46:38.709Z,926.26
2017-03-13T13:47:52.384Z,926.35
2017-03-13T13:49:06.064Z,926.37
2017-03-13T13:50:18.554Z,926.39
2017-03-13T13:51:32.267Z,926.38
2017-03-13T13:52:46.219Z,926.41
2017-03-13T13:53:59.921Z,926.36
2017-03-13T13:55:13.009Z,926.37
2017-03-13T13:56:26.703Z,926.33
2017-03-13T13:57:39.807Z,926.34
2017-03-13T13:58:53.516Z,926.3
2017-03-13T14:00:07.198Z,926.32
2017-03-13T14:01:20.270Z,926.35
2017-03-13T14:02:33.960Z,926.33
2017-03-13T14:03:47.647Z,926.3
2017-03-13T14:05:00.709Z,926.32
2017-03-13T14:06:13.237Z,926.36
2017-03-13T14:07:26.327Z,926.32
2017-03-13T14:08:38.197Z,926.33
2017-03-13T14:09:51.268Z,926.35
2017-03-13T14:11:04.929Z,926.34
2017-03-13T14:12:18.612Z,926.33
2017-03-13T14:13:31.715Z,926.33
2017-03-13T14:14:45.475Z,926.34
2017-03-13T14:15:59.163Z,926.32
2017-03-13T14:17:12.245Z,926.34
2017-03-13T14:18:25.916Z,926.35
2017-03-13T14:19:39.626Z,926.27
2017-03-13T14:20:53.314Z,926.26
2017-03-13T14:22:06.403Z,926.26
2017-03-13T14:23:19.494Z,926.25
2017-03-13T14:24:33.213Z,926.22
2017-03-13T14:25:46.915Z,926.14
2017-03-13T14:27:00.666Z,926.28
2017-03-13T14:28:14.358Z,926.19
2017-03-13T14:29:27.457Z,926.16
2017-03-13T14:30:41.123Z,926.17
2017-03-13T14:31:53.593Z,926.2
2017-03-13T14:33:07.279Z,926.27
2017-03-13T14:34:20.392Z,926.24
2017-03-13T14:35:34.066Z,926.17
2017-03-13T14:36:47.156Z,926.24
2017-03-13T14:38:00.838Z,926.17
2017-03-13T14:39:13.915Z,926.16
2017-03-13T14:40:26.978Z,926.19
2017-03-13T14:41:40.054Z,926.16
2017-03-13T14:42:53.105Z,926.16
2017-03-13T14:44:06.177Z,926.2
2017-03-13T14:45:19.840Z,926.19
2017-03-13T14:46:33.521Z,926.17
2017-03-13T14:47:46.598Z,926.14
2017-03-13T14:48:59.676Z,926.07
2017-03-13T14:50:12.796Z,926.07
2017-03-13T14:51:25.867Z,926.09
2017-03-13T14:52:39.543Z,926.08
2017-03-13T14:53:53.209Z,926.08
2017-03-13T14:55:05.692Z,926.04
2017-03-13T14:56:18.777Z,926.03
2017-03-13T14:57:32.482Z,926.08
2017-03-13T14:58:45.562Z,926.03
2017-03-13T14:59:59.235Z,926.01
2017-03-13T15:01:12.892Z,926.01
2017-03-13T15:02:25.962Z,926.03
2017-03-13T15:03:39.635Z,926.03
2017-03-13T15:04:52.707Z,925.98
2017-03-13T15:06:06.384Z,926
2017-03-13T15:07:20.099Z,925.99
2017-03-13T15:08:33.169Z,926
2017-03-13T15:09:46.826Z,925.98
2017-03-13T15:10:59.924Z,926.02
2017-03-13T15:12:13.640Z,925.99
2017-03-13T15:13:26.733Z,926.02
2017-03-13T15:14:40.432Z,925.98
2017-03-13T15:15:54.127Z,926
2017-03-13T15:17:07.790Z,926.02
2017-03-13T15:18:20.880Z,926.02
2017-03-13T15:19:34.544Z,926
2017-03-13T15:20:48.222Z,926
2017-03-13T15:22:01.973Z,925.98
2017-03-13T15:23:15.651Z,925.93
2017-03-13T15:24:29.338Z,925.86
2017-03-13T15:25:43.011Z,925.93